Terminal Aerodrome Forecast
Issued by NWS

Home | Current Version | Previous Version | Text Only | Print | Product List | Glossary On
Versions: 1 2 3 4 5 6 7 8 9 10 11 12 13 14 15 16 17 18 19 20
000
FTUS41 KPBZ 261100
TAFFKL
TAF
KFKL 261125Z 2612/2712 21008KT P6SM BKN060
     FM270000 20005KT P6SM VCSH BKN050
     FM270800 23005KT 5SM BR VCSH OVC030
      AMD LTD TO CLD VIS AND WIND=

USA.gov is the U.S. government's official web portal to all federal, state and local government web resources and services.